createdAt,value
2022-09-23T00:00:46.710Z,11.7
2022-09-23T00:02:44.458Z,11.7
2022-09-23T00:04:41.996Z,11.7
2022-09-23T00:06:39.682Z,11.8
2022-09-23T00:08:45.264Z,11.7
2022-09-23T00:10:42.921Z,11.8
2022-09-23T00:12:40.648Z,11.8
2022-09-23T00:14:38.282Z,11.8
2022-09-23T00:16:35.991Z,11.7
2022-09-23T00:18:33.614Z,11.7
2022-09-23T00:20:31.299Z,11.7
2022-09-23T00:22:36.861Z,11.8
2022-09-23T00:24:34.506Z,12
2022-09-23T00:26:32.183Z,11.8
2022-09-23T00:28:29.886Z,12
2022-09-23T00:30:27.600Z,11.9
2022-09-23T00:34:22.858Z,11.7
2022-09-23T00:36:28.445Z,11.7
2022-09-23T00:38:26.106Z,11.8
2022-09-23T00:42:50.764Z,11.5
2022-09-23T00:44:48.430Z,11.6
2022-09-23T00:48:51.673Z,11.6
2022-09-23T00:50:49.353Z,11.6
2022-09-23T00:52:46.996Z,11.5
2022-09-23T00:54:44.662Z,11.6
2022-09-23T00:56:42.301Z,11.6
2022-09-23T00:58:39.977Z,11.6
2022-09-23T01:00:37.665Z,11.6
2022-09-23T01:02:43.294Z,11.6
2022-09-23T01:04:40.894Z,11.6
2022-09-23T01:06:38.570Z,11.6
2022-09-23T01:08:36.238Z,11.5
2022-09-23T01:12:31.586Z,11.5
2022-09-23T01:14:29.248Z,11.5
2022-09-23T01:16:34.926Z,11.5
2022-09-23T01:18:32.513Z,11.5
2022-09-23T01:20:30.205Z,11.5
2022-09-23T01:22:27.848Z,11.5
2022-09-23T01:24:25.547Z,11.5
2022-09-23T01:26:23.200Z,11.4
2022-09-23T01:28:20.834Z,11.3
2022-09-23T01:30:26.517Z,11.3
2022-09-23T01:34:21.768Z,11.3
2022-09-23T01:35:24.553Z,11.3
2022-09-23T01:37:22.197Z,11.2
2022-09-23T01:39:19.872Z,11.3
2022-09-23T01:41:17.534Z,11.3
2022-09-23T01:43:23.146Z,11.2
2022-09-23T01:45:20.794Z,11.3
2022-09-23T01:51:13.807Z,11.1
2022-09-23T01:53:11.473Z,11.2
2022-09-23T01:55:09.165Z,11.2
2022-09-23T01:57:14.721Z,11.2
2022-09-23T01:59:12.377Z,11
2022-09-23T02:01:10.120Z,11
2022-09-23T02:03:07.748Z,11.1
2022-09-23T02:05:05.426Z,11
2022-09-23T02:07:03.067Z,10.9
2022-09-23T02:09:00.799Z,10.9
2022-09-23T02:11:06.312Z,10.9
2022-09-23T02:15:01.673Z,10.9
2022-09-23T02:18:56.969Z,10.9
2022-09-23T02:20:54.631Z,10.8
2022-09-23T02:22:52.269Z,10.9
2022-09-23T02:24:57.850Z,10.8
2022-09-23T02:26:55.527Z,10.8
2022-09-23T02:28:53.186Z,10.7
2022-09-23T02:31:53.646Z,10.7
2022-09-23T02:33:51.294Z,10.8
2022-09-23T02:35:48.920Z,10.8
2022-09-23T02:39:52.166Z,10.9
2022-09-23T02:41:49.839Z,10.9
2022-09-23T02:43:47.469Z,10.8
2022-09-23T02:47:42.776Z,10.5
2022-09-23T02:49:40.470Z,10.5
2022-09-23T02:51:46.004Z,10.5
2022-09-23T02:55:41.344Z,10.5
2022-09-23T02:57:39.018Z,10.4
2022-09-23T02:59:36.650Z,10.5
2022-09-23T03:01:34.382Z,10.5
2022-09-23T03:03:32.001Z,10.6
2022-09-23T03:05:37.582Z,10.5
2022-09-23T03:07:35.235Z,10.6
2022-09-23T03:09:32.924Z,10.6
2022-09-23T03:11:30.571Z,10.5
2022-09-23T03:15:25.904Z,10.5
2022-09-23T03:17:23.572Z,10.5
2022-09-23T03:19:29.159Z,10.5
2022-09-23T03:21:28.371Z,10.5
2022-09-23T03:23:25.983Z,10.4
2022-09-23T03:24:28.756Z,10.5
2022-09-23T03:28:24.045Z,10.4
2022-09-23T03:30:21.713Z,10.5
2022-09-23T03:32:27.277Z,10.4
2022-09-23T03:34:24.965Z,10.4
2022-09-23T03:38:20.289Z,10.4
2022-09-23T03:40:17.995Z,10.4
2022-09-23T03:42:15.576Z,10.4
2022-09-23T03:44:13.233Z,10.4
2022-09-23T03:46:18.811Z,10.3
2022-09-23T03:48:16.455Z,10.4
2022-09-23T03:50:14.177Z,10.3
2022-09-23T03:52:11.843Z,10.3
2022-09-23T03:54:09.499Z,10.3
2022-09-23T03:56:07.135Z,10.3
2022-09-23T04:00:10.361Z,10.3
2022-09-23T04:02:08.140Z,10.3
2022-09-23T04:08:01.020Z,10.2
2022-09-23T04:09:58.686Z,10.3
2022-09-23T04:11:56.314Z,10.3
2022-09-23T04:14:01.889Z,10.1
2022-09-23T04:15:59.600Z,10.3
2022-09-23T04:17:57.218Z,10.3
2022-09-23T04:22:18.289Z,10.2
2022-09-23T04:24:15.934Z,10.3
2022-09-23T04:26:21.524Z,10.2
2022-09-23T04:28:19.203Z,10.2
2022-09-23T04:30:16.853Z,10.2
2022-09-23T04:32:14.517Z,10.2
2022-09-23T04:34:12.182Z,10.2
2022-09-23T04:36:09.811Z,10.2
2022-09-23T04:38:07.464Z,10.2
2022-09-23T04:40:13.060Z,10.2
2022-09-23T04:42:10.689Z,10.2
2022-09-23T04:44:08.350Z,10.1
2022-09-23T04:46:06.023Z,10.1
2022-09-23T04:48:03.681Z,10
2022-09-23T04:56:02.242Z,10.1
2022-09-23T04:57:59.889Z,10.1
2022-09-23T04:59:57.539Z,10.1
2022-09-23T05:01:55.255Z,10.1
2022-09-23T05:03:52.857Z,10.1
2022-09-23T05:05:50.508Z,10.1
2022-09-23T05:07:56.086Z,10.1
2022-09-23T05:09:53.748Z,10.2
2022-09-23T05:11:51.407Z,10.2
2022-09-23T05:12:57.243Z,10.2
2022-09-23T05:16:49.491Z,10.1
2022-09-23T05:18:47.137Z,10.1
2022-09-23T05:20:53.275Z,10.2
2022-09-23T05:22:50.375Z,10.3
2022-09-23T05:24:48.003Z,10.3
2022-09-23T05:26:45.676Z,10.2
2022-09-23T05:30:40.965Z,10.2
2022-09-23T05:32:38.630Z,10.3
2022-09-23T05:34:44.189Z,10.3
2022-09-23T05:40:37.264Z,10.3
2022-09-23T05:42:34.832Z,10.3
2022-09-23T05:44:32.471Z,10.2
2022-09-23T05:46:30.208Z,10.3
2022-09-23T05:48:35.690Z,10.2
2022-09-23T05:50:33.368Z,10.3
2022-09-23T05:52:31.040Z,10.2
2022-09-23T05:54:28.711Z,10.3
2022-09-23T05:56:26.356Z,10.3
2022-09-23T06:00:21.638Z,10.5
2022-09-23T06:02:27.217Z,10.4
2022-09-23T06:04:24.854Z,10.4
2022-09-23T06:06:22.492Z,10.5
2022-09-23T06:07:25.289Z,10.5
2022-09-23T06:09:22.963Z,10.5
2022-09-23T06:13:18.272Z,10.7
2022-09-23T06:15:23.986Z,10.7
2022-09-23T06:17:21.473Z,10.7
2022-09-23T06:19:19.116Z,10.8
2022-09-23T06:21:16.792Z,10.8
2022-09-23T06:25:12.132Z,10.8
2022-09-23T06:29:15.338Z,10.9
2022-09-23T06:33:10.697Z,10.9
2022-09-23T06:35:13.187Z,10.9
2022-09-23T06:37:17.284Z,11.1
2022-09-23T06:39:03.618Z,11.1
2022-09-23T06:43:06.853Z,11.1
2022-09-23T06:47:02.257Z,11.3
2022-09-23T06:52:55.166Z,11.2
2022-09-23T06:54:52.797Z,11.2
2022-09-23T06:56:58.378Z,11.2
2022-09-23T06:58:56.053Z,11.3
2022-09-23T07:00:53.723Z,11.4
2022-09-23T07:01:56.641Z,11.5
2022-09-23T07:03:54.183Z,11.4
2022-09-23T07:05:51.822Z,11.5
2022-09-23T07:09:55.079Z,11.6
2022-09-23T07:11:52.726Z,11.7
2022-09-23T07:13:50.390Z,11.8
2022-09-23T07:15:48.166Z,11.7
2022-09-23T07:17:45.720Z,11.9
2022-09-23T07:19:43.377Z,11.9
2022-09-23T07:25:44.304Z,12.1
2022-09-23T07:27:41.975Z,12.1
2022-09-23T07:29:46.261Z,12.2
2022-09-23T07:31:39.620Z,12.3
2022-09-23T07:33:34.974Z,12.2
2022-09-23T07:35:32.582Z,12.3
2022-09-23T07:37:38.180Z,12.3
2022-09-23T07:39:35.843Z,12.3
2022-09-23T07:41:33.502Z,12.3
2022-09-23T07:47:26.495Z,12.5
2022-09-23T07:49:24.159Z,12.5
2022-09-23T07:51:34.727Z,12.7
2022-09-23T07:55:25.054Z,12.8
2022-09-23T08:01:43.607Z,13
2022-09-23T08:03:49.060Z,13.2
2022-09-23T08:05:46.718Z,13.2
2022-09-23T08:07:44.392Z,13.2
2022-09-23T08:09:42.033Z,13.3
2022-09-23T08:11:39.659Z,13.4
2022-09-23T08:13:37.331Z,13.4
2022-09-23T08:15:35.112Z,13.5
2022-09-23T08:17:40.585Z,13.5
2022-09-23T08:19:38.232Z,13.6
2022-09-23T08:21:35.664Z,13.7
2022-09-23T08:23:33.403Z,13.6
2022-09-23T08:25:33.875Z,13.8
2022-09-23T08:29:26.284Z,13.9
2022-09-23T08:31:31.894Z,13.9
2022-09-23T08:35:27.173Z,14.2
2022-09-23T08:37:24.844Z,14.2
2022-09-23T08:39:22.485Z,14.4
2022-09-23T08:41:20.115Z,14.6
2022-09-23T08:43:17.788Z,14.6
2022-09-23T08:45:23.552Z,14.9
2022-09-23T08:47:21.036Z,15
2022-09-23T08:49:18.695Z,15.1
2022-09-23T08:56:14.437Z,15.2
2022-09-23T08:58:25.640Z,15.3
2022-09-23T09:00:17.696Z,15.4
2022-09-23T09:02:16.970Z,15.5
2022-09-23T09:04:14.508Z,15.5
2022-09-23T09:06:12.147Z,15.7
2022-09-23T09:08:09.826Z,15.8
2022-09-23T09:10:07.464Z,15.7
2022-09-23T09:12:13.015Z,15.7
2022-09-23T09:14:10.681Z,15.8
2022-09-23T09:16:08.450Z,15.9
2022-09-23T09:18:05.945Z,16.1
2022-09-23T09:20:03.581Z,16.1
2022-09-23T09:22:01.253Z,16.1
2022-09-23T09:23:58.965Z,16.1
2022-09-23T09:26:04.445Z,16.3
2022-09-23T09:28:02.088Z,16.3
2022-09-23T09:29:59.720Z,16.2
2022-09-23T09:31:57.368Z,16.4
2022-09-23T09:33:55.033Z,16.4
2022-09-23T09:35:52.700Z,16.4
2022-09-23T09:37:50.341Z,16.5
2022-09-23T09:39:55.909Z,16.6
2022-09-23T09:41:53.564Z,16.7
2022-09-23T09:43:51.217Z,16.7
2022-09-23T09:44:53.983Z,16.8
2022-09-23T09:46:51.686Z,16.7
2022-09-23T09:48:50.350Z,16.9
2022-09-23T09:50:46.744Z,16.8
2022-09-23T09:52:52.279Z,16.9
2022-09-23T09:54:49.919Z,16.9
2022-09-23T09:58:45.185Z,17.1
2022-09-23T10:00:42.826Z,17.2
2022-09-23T10:02:40.467Z,17.3
2022-09-23T10:04:38.175Z,17.3
2022-09-23T10:06:43.784Z,17.5
2022-09-23T10:08:41.326Z,17.5
2022-09-23T10:10:38.956Z,17.5
2022-09-23T10:12:36.582Z,17.6
2022-09-23T10:22:32.681Z,17.8
2022-09-23T10:24:30.310Z,17.9
2022-09-23T10:26:27.938Z,17.8
2022-09-23T10:28:25.569Z,17.8
2022-09-23T10:30:23.200Z,17.8
2022-09-23T10:32:20.801Z,17.9
2022-09-23T10:34:26.386Z,17.8
2022-09-23T10:36:23.975Z,18
2022-09-23T10:38:21.613Z,17.9
2022-09-23T10:39:24.376Z,18
2022-09-23T10:41:22.018Z,17.9
2022-09-23T10:47:22.827Z,18.4
2022-09-23T10:51:19.866Z,18.5
2022-09-23T10:53:15.709Z,18.6
2022-09-23T10:55:13.295Z,18.7
2022-09-23T10:57:10.914Z,18.7
2022-09-23T10:59:08.528Z,18.8
2022-09-23T11:01:14.163Z,18.8
2022-09-23T11:03:11.706Z,18.8
2022-09-23T11:05:09.363Z,18.7
2022-09-23T11:07:06.946Z,18.7
2022-09-23T11:09:04.549Z,18.6
2022-09-23T11:11:02.154Z,18.6
2022-09-23T11:12:59.752Z,18.5
2022-09-23T11:17:02.998Z,18.6
2022-09-23T11:19:00.519Z,18.6
2022-09-23T11:20:58.147Z,18.6
2022-09-23T11:24:53.363Z,18.5
2022-09-23T11:26:50.982Z,18.5
2022-09-23T11:28:56.517Z,18.6
2022-09-23T11:30:54.175Z,18.5
2022-09-23T11:32:51.786Z,18.5
2022-09-23T11:35:14.555Z,18.5
2022-09-23T11:37:12.146Z,18.5
2022-09-23T11:39:09.738Z,18.5
2022-09-23T11:43:12.920Z,18.5
2022-09-23T11:45:10.527Z,18.5
2022-09-23T11:47:08.187Z,18.6
2022-09-23T11:49:05.798Z,18.4
2022-09-23T11:51:03.388Z,18.5
2022-09-23T11:53:00.988Z,18.5
2022-09-23T11:55:15.226Z,18.4
2022-09-23T11:57:04.179Z,18.6
2022-09-23T11:59:01.825Z,18.5
2022-09-23T12:01:01.036Z,18.4
2022-09-23T12:03:03.287Z,18.6
2022-09-23T12:04:57.781Z,18.5
2022-09-23T12:06:52.217Z,18.6
2022-09-23T12:08:57.772Z,18.5
2022-09-23T12:10:55.380Z,18.6
2022-09-23T12:16:48.275Z,18.6
2022-09-23T12:18:45.801Z,18.7
2022-09-23T12:20:43.404Z,18.7
2022-09-23T12:26:44.143Z,19
2022-09-23T12:27:46.935Z,19.1
2022-09-23T12:29:44.523Z,19.1
2022-09-23T12:31:44.144Z,19.1
2022-09-23T12:33:39.750Z,19.1
2022-09-23T12:35:45.311Z,19.2
2022-09-23T12:37:42.931Z,19.1
2022-09-23T12:39:40.508Z,19.1
2022-09-23T12:41:38.147Z,19.3
2022-09-23T12:43:35.750Z,19.4
2022-09-23T12:45:33.362Z,19.6
2022-09-23T12:49:36.430Z,19.6
2022-09-23T12:51:34.028Z,19.7
2022-09-23T12:53:31.603Z,19.6
2022-09-23T12:55:29.186Z,19.7
2022-09-23T12:59:24.387Z,20.1
2022-09-23T13:03:27.482Z,19.7
2022-09-23T13:05:25.077Z,19.8
2022-09-23T13:07:22.643Z,19.6
2022-09-23T13:09:20.224Z,19.5
2022-09-23T13:11:17.814Z,19.6
2022-09-23T13:13:15.408Z,19.5
2022-09-23T13:15:13.010Z,19.7
2022-09-23T13:17:18.525Z,19.7
2022-09-23T13:19:16.091Z,19.7
2022-09-23T13:21:13.685Z,19.7
2022-09-23T13:22:16.446Z,19.8
2022-09-23T13:24:14.018Z,19.8
2022-09-23T13:26:11.600Z,19.8
2022-09-23T13:28:09.185Z,19.9
2022-09-23T13:30:14.705Z,20
2022-09-23T13:32:12.350Z,20.1
2022-09-23T13:38:04.995Z,20
2022-09-23T13:40:02.592Z,19.9
2022-09-23T13:42:00.166Z,19.9
2022-09-23T13:46:03.358Z,19.9
2022-09-23T13:48:00.814Z,19.9
2022-09-23T13:49:58.397Z,19.9
2022-09-23T13:51:55.977Z,20
2022-09-23T13:53:53.564Z,20.2
2022-09-23T13:55:52.589Z,20.1
2022-09-23T13:57:56.650Z,19.9
2022-09-23T13:59:54.233Z,19.9
2022-09-23T14:01:51.823Z,20
2022-09-23T14:03:49.377Z,20
2022-09-23T14:05:46.927Z,19.9
2022-09-23T14:07:44.518Z,19.8
2022-09-23T14:09:42.095Z,19.8
2022-09-23T14:11:47.605Z,19.6
2022-09-23T14:15:42.773Z,19.7
2022-09-23T14:16:45.578Z,19.6
2022-09-23T14:18:43.111Z,19.5
2022-09-23T14:24:43.817Z,19.4
2022-09-23T14:26:41.393Z,19.5
2022-09-23T14:28:38.959Z,19.5
2022-09-23T14:30:36.543Z,19.5
2022-09-23T14:32:34.133Z,19.3
2022-09-23T14:34:31.720Z,19.5
2022-09-23T14:36:29.317Z,19.4
2022-09-23T14:38:34.847Z,19.4
2022-09-23T14:40:32.485Z,19.4
2022-09-23T14:46:26.699Z,19.2
2022-09-23T14:48:24.283Z,19.3
2022-09-23T14:50:21.880Z,19.1
2022-09-23T14:52:27.392Z,19.1
2022-09-23T14:54:25.010Z,19.2
2022-09-23T14:56:22.580Z,19.3
2022-09-23T15:00:17.784Z,19
2022-09-23T15:02:15.377Z,19.1
2022-09-23T15:04:12.993Z,19
2022-09-23T15:06:18.516Z,19
2022-09-23T15:08:16.112Z,18.9
2022-09-23T15:10:13.715Z,19
2022-09-23T15:14:39.644Z,18.9
2022-09-23T15:16:35.916Z,18.9
2022-09-23T15:18:41.391Z,19
2022-09-23T15:20:39.009Z,19
2022-09-23T15:22:36.623Z,18.9
2022-09-23T15:24:34.233Z,18.9
2022-09-23T15:26:31.851Z,18.9
2022-09-23T15:28:29.443Z,18.8
2022-09-23T15:32:32.592Z,18.8
2022-09-23T15:36:27.813Z,18.8
2022-09-23T15:38:25.435Z,18.7
2022-09-23T15:40:23.190Z,18.7
2022-09-23T15:42:20.669Z,18.7
2022-09-23T15:44:18.286Z,18.7
2022-09-23T15:46:23.927Z,18.6
2022-09-23T15:48:21.431Z,18.8
2022-09-23T15:50:19.031Z,18.7
2022-09-23T15:52:16.646Z,18.7
2022-09-23T15:54:14.244Z,18.7
2022-09-23T16:00:15.046Z,18.4
2022-09-23T16:04:10.256Z,18.5
2022-09-23T16:05:13.046Z,18.5
2022-09-23T16:07:10.676Z,18.5
2022-09-23T16:09:08.450Z,18.4
2022-09-23T16:17:06.707Z,18.5
2022-09-23T16:19:04.339Z,18.5
2022-09-23T16:21:01.947Z,18.4
2022-09-23T16:22:59.559Z,18.4
2022-09-23T16:24:57.195Z,18.4
2022-09-23T16:27:02.746Z,18.3
2022-09-23T16:29:00.443Z,18.3
2022-09-23T16:30:57.984Z,18.2
2022-09-23T16:32:55.632Z,18.3
2022-09-23T16:34:53.235Z,18.2
2022-09-23T16:36:50.878Z,18.2
2022-09-23T16:40:54.049Z,18
2022-09-23T16:48:48.318Z,18
2022-09-23T16:50:42.129Z,18
2022-09-23T16:52:39.763Z,18
2022-09-23T16:54:45.291Z,18
2022-09-23T16:56:42.922Z,17.9
2022-09-23T16:58:40.553Z,17.8
2022-09-23T16:59:43.335Z,17.9
2022-09-23T17:01:41.045Z,17.9
2022-09-23T17:03:38.587Z,17.8
2022-09-23T17:09:39.425Z,17.8
2022-09-23T17:11:37.040Z,17.7
2022-09-23T17:13:34.666Z,17.9
2022-09-23T17:15:32.285Z,17.8
2022-09-23T17:17:29.899Z,17.7
2022-09-23T17:19:27.558Z,17.7
2022-09-23T17:21:33.093Z,17.6
2022-09-23T17:25:28.337Z,17.7
2022-09-23T17:27:25.950Z,17.6
2022-09-23T17:29:23.560Z,17.6
2022-09-23T17:31:21.228Z,17.6
2022-09-23T17:33:18.786Z,17.5
2022-09-23T17:35:24.356Z,17.5
2022-09-23T17:37:22.040Z,17.5
2022-09-23T17:39:19.659Z,17.5
2022-09-23T17:41:17.313Z,17.4
2022-09-23T17:43:14.894Z,17.4
2022-09-23T17:45:12.537Z,17.3
2022-09-23T17:47:10.157Z,17.3
2022-09-23T17:49:15.698Z,17.2
2022-09-23T17:51:13.328Z,17.3
2022-09-23T17:54:13.781Z,17.2
2022-09-23T17:58:09.033Z,17.1
2022-09-23T18:00:06.735Z,17
2022-09-23T18:02:15.537Z,16.8
2022-09-23T18:06:07.514Z,16.9
2022-09-23T18:12:00.438Z,16.8
2022-09-23T18:13:58.090Z,16.8
2022-09-23T18:16:03.694Z,16.7
2022-09-23T18:19:58.883Z,16.5
2022-09-23T18:21:56.514Z,16.5
2022-09-23T18:23:57.320Z,16.3
2022-09-23T18:25:51.916Z,16.3
2022-09-23T18:27:49.455Z,16.3
2022-09-23T18:29:55.006Z,16.2
2022-09-23T18:31:52.802Z,16.3
2022-09-23T18:33:50.299Z,16.3
2022-09-23T18:35:47.951Z,16.2
2022-09-23T18:37:45.569Z,16.2
2022-09-23T18:39:43.231Z,16.2
2022-09-23T18:41:40.868Z,16.2
2022-09-23T18:43:48.700Z,16.2
2022-09-23T18:45:44.182Z,16.2
2022-09-23T18:52:06.360Z,16
2022-09-23T18:54:04.113Z,16
2022-09-23T19:05:57.787Z,15.9
2022-09-23T19:07:55.447Z,15.9
2022-09-23T19:10:01.025Z,15.8
2022-09-23T19:11:58.648Z,15.9
2022-09-23T19:13:56.294Z,15.8
2022-09-23T19:15:54.042Z,15.9
2022-09-23T19:17:51.565Z,15.8
2022-09-23T19:19:49.224Z,15.8
2022-09-23T19:21:46.872Z,15.9
2022-09-23T19:23:52.436Z,15.7
2022-09-23T19:25:50.079Z,15.7
2022-09-23T19:27:47.698Z,15.7
2022-09-23T19:31:43.181Z,15.7
2022-09-23T19:35:38.311Z,15.6
2022-09-23T19:37:43.873Z,15.6
2022-09-23T19:39:41.490Z,15.7
2022-09-23T19:44:39.600Z,15.6
2022-09-23T19:46:37.319Z,15.5
2022-09-23T19:48:34.903Z,15.6
2022-09-23T19:50:40.491Z,15.6
2022-09-23T19:54:35.780Z,15.6
2022-09-23T19:56:33.439Z,15.6
2022-09-23T20:00:28.793Z,15.5
2022-09-23T20:02:26.425Z,15.6
2022-09-23T20:04:31.903Z,15.5
2022-09-23T20:08:27.206Z,15.6
2022-09-23T20:10:24.826Z,15.5
2022-09-23T20:12:22.470Z,15.6
2022-09-23T20:14:20.151Z,15.5
2022-09-23T20:16:17.846Z,15.5
2022-09-23T20:18:23.351Z,15.6
2022-09-23T20:20:21.018Z,15.5
2022-09-23T20:28:13.143Z,15.5
2022-09-23T20:34:14.019Z,15.6
2022-09-23T20:36:11.666Z,15.7
2022-09-23T20:37:14.450Z,15.5
2022-09-23T20:39:12.086Z,15.6
2022-09-23T20:41:09.735Z,15.6
2022-09-23T20:43:07.389Z,15.5
2022-09-23T20:45:12.945Z,15.6
2022-09-23T20:47:10.670Z,15.7
2022-09-23T20:49:08.272Z,15.6
2022-09-23T20:51:05.911Z,15.6
2022-09-23T20:53:03.522Z,15.6
2022-09-23T20:55:01.244Z,15.7
2022-09-23T20:56:58.841Z,15.7
2022-09-23T20:59:04.419Z,15.6
2022-09-23T21:01:02.209Z,15.6
2022-09-23T21:02:59.682Z,15.5
2022-09-23T21:04:57.385Z,15.6
2022-09-23T21:06:54.979Z,15.6
2022-09-23T21:12:55.837Z,15.5
2022-09-23T21:14:53.478Z,15.5
2022-09-23T21:16:51.154Z,15.5
2022-09-23T21:22:44.103Z,15.5
2022-09-23T21:25:25.303Z,15.6
2022-09-23T21:26:47.328Z,15.5
2022-09-23T21:28:44.966Z,15.5
2022-09-23T21:31:45.567Z,15.5
2022-09-23T21:33:43.042Z,15.4
2022-09-23T21:35:40.705Z,15.4
2022-09-23T21:39:43.930Z,15.3
2022-09-23T21:41:41.580Z,15.4
2022-09-23T21:43:39.273Z,15.4
2022-09-23T21:45:36.916Z,15.3
2022-09-23T21:47:34.574Z,15.4
2022-09-23T21:49:32.221Z,15.4
2022-09-23T21:51:29.857Z,15.4
2022-09-23T21:53:35.450Z,15.3
2022-09-23T21:55:33.094Z,15.4
2022-09-23T21:57:30.745Z,15.4
2022-09-23T21:59:28.429Z,15.3
2022-09-23T22:01:26.107Z,15.4
2022-09-23T22:03:23.693Z,15.3
2022-09-23T22:07:26.920Z,15.2
2022-09-23T22:09:24.579Z,15.3
2022-09-23T22:11:22.235Z,15.4
2022-09-23T22:13:19.908Z,15.2
2022-09-23T22:15:17.728Z,15.3
2022-09-23T22:17:15.190Z,15.2
2022-09-23T22:23:16.053Z,15.2
2022-09-23T22:25:13.684Z,15.2
2022-09-23T22:29:38.317Z,15.2
2022-09-23T22:31:36.015Z,15.3
2022-09-23T22:35:39.158Z,15.2
2022-09-23T22:37:36.816Z,15.2
2022-09-23T22:39:34.435Z,15.2
2022-09-23T22:41:32.102Z,15.3
2022-09-23T22:43:29.738Z,15.3
2022-09-23T22:45:27.398Z,15.2
2022-09-23T22:47:32.960Z,15.1
2022-09-23T22:49:30.620Z,15.2
2022-09-23T22:51:28.461Z,15.2
2022-09-23T22:53:25.900Z,15.1
2022-09-23T22:55:23.538Z,15.3
2022-09-23T22:59:18.812Z,15.3
2022-09-23T23:05:19.715Z,15.1
2022-09-23T23:07:17.353Z,15.1
2022-09-23T23:09:14.998Z,15.1
2022-09-23T23:15:15.854Z,15.1
2022-09-23T23:17:13.527Z,15.2
2022-09-23T23:19:11.184Z,15.2
2022-09-23T23:20:13.964Z,15
2022-09-23T23:26:09.727Z,15.1
2022-09-23T23:28:12.513Z,15.1
2022-09-23T23:34:05.469Z,15
2022-09-23T23:38:00.781Z,14.9
2022-09-23T23:39:58.427Z,15
2022-09-23T23:42:04.024Z,14.9
2022-09-23T23:44:01.732Z,14.9
2022-09-23T23:45:59.315Z,15
2022-09-23T23:47:56.983Z,15
2022-09-23T23:49:54.616Z,14.9
2022-09-23T23:51:52.260Z,15
2022-09-23T23:53:49.927Z,14.9
2022-09-23T23:55:55.462Z,14.9
2022-09-23T23:59:50.779Z,15
